Casper, WY (82601)

11:05 AM MDT on August 27, 2016 (GMT -0600)
Grant Avenue | | Change Station
Active Advisory: Fire Weather Warning Active Notice: Record Report

Elev 5164 ft 42.84 °N, 106.32 °W | Updated 4 minutes ago

Clear
Clear
70.7 °F
Feels Like 77 °F
N
2.5
Wind Variable Wind from South
Gusts 8.1 mph

Today
High -- | Low -- °F
--% Chance of Precip.
Yesterday
High -- | Low -- °F
Precip. -- in
Pressure 29.95 in
Visibility 10.0 miles
Clouds Clear
Heat Index 77 °F
Dew Point 51 °F
Humidity 50%
Rainfall 0.00 in
Snow Depth Not available.
6:25 AM 7:47 PM
Waning Crescent, 23% visible
METAR KCPR 271653Z 21018G25KT 10SM CLR 21/06 A3008 RMK AO2 SLP140 T02060056 $
Pressure 29.95 in
Visibility 10.0 miles
Clouds Clear
Heat Index 77 °F
Dew Point 51 °F
Humidity 50%
Rainfall 0.00 in
Snow Depth Not available.
6:25 AM 7:47 PM
Waning Crescent, 23% visible
METAR KCPR 271653Z 21018G25KT 10SM CLR 21/06 A3008 RMK AO2 SLP140 T02060056 $

10-Day Weather Forecast

Almanac

Astronomy

Aug. 27, 2016 Rise Set
Actual Time
Civil Twilight
Nautical Twilight
Astronomical Twilight
Moon
Length of Visible Light
Length of Day
Tomorrow will be .
, % of the Moon is Illuminated

Today's Extremes

State Highs State Lows

Community

WunderPhotos

Upload Photos

1,935,383 photos uploaded!

WunderBlog® & News

Nearby

Air Quality

  Air Quality AQ Index Pollutant
Not available.

Snow Depth

Station Depth Elevation

Earthquake Activity

City Distance Mag. Time & Date
Minimum magnitude displayed is 2.5.

Coastal Water Temperatures

Place Temperature

Stations

Nearby Weather Stations

Station Location Temp. Windchill Dew Point Humidity Wind Precip. Elev Updated Type
                   

Watches & Warnings

Fire Weather Warning
Issued: 1:58 AM MDT Aug. 27, 2016 – National Weather Service

... Red flag warning in effect from noon today to 8 PM MDT this
evening for low humidity... strong wind gusts... and critically dry
fuels for fire weather zones 280... 285... 287 and 289...

The National Weather Service in Riverton has issued a red flag
warning... which is in effect from noon today to 8 PM MDT this
evening. The Fire Weather Watch is no longer in effect.

* Wind... west to southwest 10 to 15 with gusts to 25 mph in the
afternoon and early evening hours.

* Humidity... 10 to 15 percent.

* Impacts... any fires that develop will likely spread rapidly.
Outdoor burning is strongly discouraged.

Precautionary/preparedness actions...

A red flag warning means that critical fire weather conditions
are either occurring now... .or will shortly. A combination of
strong winds... low relative humidity... and warm temperatures can
contribute to extreme fire behavior.